createdAt,value
2017-05-25T00:00:12.639Z,0
2017-05-25T00:01:13.908Z,0
2017-05-25T00:02:15.188Z,0
2017-05-25T00:03:16.425Z,0
2017-05-25T00:04:17.688Z,0
2017-05-25T00:05:18.946Z,0
2017-05-25T00:06:20.204Z,0
2017-05-25T00:07:21.450Z,0
2017-05-25T00:08:22.712Z,0
2017-05-25T00:09:24.198Z,0
2017-05-25T00:10:25.440Z,0
2017-05-25T00:11:26.776Z,0
2017-05-25T00:12:28.057Z,0
2017-05-25T00:13:29.414Z,0
2017-05-25T00:14:30.657Z,0
2017-05-25T00:15:31.915Z,0
2017-05-25T00:16:33.192Z,0
2017-05-25T00:17:34.414Z,0
2017-05-25T00:18:35.800Z,0
2017-05-25T00:19:37.047Z,0
2017-05-25T00:20:38.328Z,0
2017-05-25T00:21:39.597Z,0
2017-05-25T00:22:40.820Z,0
2017-05-25T00:23:42.058Z,0
2017-05-25T00:24:43.310Z,0
2017-05-25T00:25:44.543Z,0
2017-05-25T00:26:45.790Z,0
2017-05-25T00:27:47.031Z,0
2017-05-25T00:28:48.274Z,0
2017-05-25T00:29:49.511Z,0
2017-05-25T00:30:50.757Z,0
2017-05-25T00:31:52.005Z,0
2017-05-25T00:32:53.250Z,0
2017-05-25T00:33:54.501Z,0
2017-05-25T00:34:55.760Z,0
2017-05-25T00:35:56.999Z,0
2017-05-25T00:36:58.248Z,0
2017-05-25T00:37:59.491Z,0
2017-05-25T00:39:00.735Z,0
2017-05-25T00:40:02.011Z,0
2017-05-25T00:41:03.250Z,0
2017-05-25T00:42:04.509Z,0
2017-05-25T00:43:05.760Z,0
2017-05-25T00:44:07.031Z,0
2017-05-25T00:45:08.407Z,0
2017-05-25T00:46:09.642Z,0
2017-05-25T00:47:10.897Z,0
2017-05-25T00:48:12.122Z,0
2017-05-25T00:49:13.386Z,0
2017-05-25T00:50:14.610Z,0
2017-05-25T00:51:15.921Z,0
2017-05-25T00:52:17.209Z,0
2017-05-25T00:53:18.470Z,0
2017-05-25T00:54:19.819Z,0
2017-05-25T00:55:21.098Z,0
2017-05-25T00:56:22.320Z,0
2017-05-25T00:57:23.573Z,0
2017-05-25T00:58:24.827Z,0
2017-05-25T00:59:26.088Z,0
2017-05-25T01:00:27.329Z,0
2017-05-25T01:01:28.573Z,0
2017-05-25T01:02:29.899Z,0
2017-05-25T01:03:31.239Z,0
2017-05-25T01:04:32.806Z,0
2017-05-25T01:05:33.965Z,0
2017-05-25T01:06:35.206Z,0
2017-05-25T01:07:36.441Z,0
2017-05-25T01:08:37.710Z,0
2017-05-25T01:09:39.019Z,0
2017-05-25T01:10:40.257Z,0
2017-05-25T01:11:41.508Z,0
2017-05-25T01:12:42.746Z,0
2017-05-25T01:13:44.011Z,0
2017-05-25T01:14:45.368Z,0
2017-05-25T01:15:46.621Z,0
2017-05-25T01:16:47.866Z,0
2017-05-25T01:17:49.108Z,0
2017-05-25T01:18:50.373Z,0
2017-05-25T01:19:51.713Z,0
2017-05-25T01:20:52.964Z,0
2017-05-25T01:21:54.185Z,0
2017-05-25T01:22:55.499Z,0
2017-05-25T01:23:56.722Z,0
2017-05-25T01:24:57.964Z,0
2017-05-25T01:25:59.214Z,0
2017-05-25T01:27:00.520Z,0
2017-05-25T01:28:01.780Z,0
2017-05-25T01:29:03.002Z,0
2017-05-25T01:30:04.315Z,0
2017-05-25T01:31:05.576Z,0
2017-05-25T01:32:06.863Z,0
2017-05-25T01:33:08.106Z,0
2017-05-25T01:34:09.349Z,0
2017-05-25T01:35:10.644Z,0
2017-05-25T01:36:11.906Z,0
2017-05-25T01:37:13.152Z,0
2017-05-25T01:38:14.394Z,0
2017-05-25T01:39:15.631Z,0
2017-05-25T01:40:16.878Z,0
2017-05-25T01:41:18.123Z,0
2017-05-25T01:42:19.534Z,0
2017-05-25T01:43:20.781Z,0
2017-05-25T01:44:22.026Z,0
2017-05-25T01:45:23.282Z,0
2017-05-25T01:46:24.555Z,0
2017-05-25T01:47:25.801Z,0
2017-05-25T01:48:27.038Z,0
2017-05-25T01:49:28.281Z,0
2017-05-25T01:50:29.526Z,0
2017-05-25T01:51:30.765Z,0
2017-05-25T01:52:32.020Z,0
2017-05-25T01:53:33.338Z,0
2017-05-25T01:54:34.583Z,0
2017-05-25T01:55:35.930Z,0
2017-05-25T01:56:37.154Z,0
2017-05-25T01:57:38.420Z,0
2017-05-25T01:58:39.650Z,0
2017-05-25T01:59:40.912Z,0
2017-05-25T02:00:42.180Z,0
2017-05-25T02:01:43.424Z,0
2017-05-25T02:02:44.670Z,0
2017-05-25T02:03:45.940Z,0
2017-05-25T02:04:47.221Z,0
2017-05-25T02:05:48.514Z,0
2017-05-25T02:06:49.844Z,0
2017-05-25T02:07:51.057Z,0
2017-05-25T02:08:52.300Z,0
2017-05-25T02:09:53.557Z,0
2017-05-25T02:10:54.782Z,0
2017-05-25T02:11:56.048Z,0
2017-05-25T02:12:57.359Z,0
2017-05-25T02:13:58.604Z,0
2017-05-25T02:14:59.855Z,0
2017-05-25T02:16:01.102Z,0
2017-05-25T02:17:02.345Z,0
2017-05-25T02:18:03.625Z,0
2017-05-25T02:19:04.865Z,0
2017-05-25T02:20:06.222Z,0
2017-05-25T02:21:07.461Z,0
2017-05-25T02:22:08.712Z,0
2017-05-25T02:23:09.977Z,0
2017-05-25T02:24:11.222Z,0
2017-05-25T02:25:12.502Z,0
2017-05-25T02:26:13.748Z,0
2017-05-25T02:27:14.987Z,0
2017-05-25T02:28:16.228Z,0
2017-05-25T02:29:17.625Z,0
2017-05-25T02:30:18.877Z,0
2017-05-25T02:31:20.198Z,0
2017-05-25T02:32:21.524Z,0
2017-05-25T02:33:22.765Z,0
2017-05-25T02:34:24.004Z,0
2017-05-25T02:35:25.256Z,0
2017-05-25T02:36:26.595Z,0
2017-05-25T02:37:27.911Z,0
2017-05-25T02:38:29.193Z,0
2017-05-25T02:39:30.398Z,0
2017-05-25T02:40:31.669Z,0
2017-05-25T02:41:32.926Z,4
2017-05-25T02:42:34.312Z,4
2017-05-25T02:43:35.559Z,0
2017-05-25T02:44:36.811Z,0
2017-05-25T02:45:38.066Z,4
2017-05-25T02:46:39.334Z,4
2017-05-25T02:47:40.688Z,0
2017-05-25T02:48:41.940Z,4
2017-05-25T02:49:43.181Z,4
2017-05-25T02:50:44.439Z,4
2017-05-25T02:51:45.674Z,4
2017-05-25T02:52:46.930Z,8
2017-05-25T02:53:48.181Z,8
2017-05-25T02:54:49.491Z,8
2017-05-25T02:55:50.791Z,8
2017-05-25T02:56:52.000Z,12
2017-05-25T02:57:53.245Z,8
2017-05-25T02:58:54.479Z,12
2017-05-25T02:59:55.778Z,16
2017-05-25T03:00:57.063Z,16
2017-05-25T03:01:58.320Z,20
2017-05-25T03:02:59.669Z,20
2017-05-25T03:04:00.908Z,24
2017-05-25T03:05:02.167Z,24
2017-05-25T03:06:03.419Z,28
2017-05-25T03:07:04.673Z,32
2017-05-25T03:08:05.934Z,32
2017-05-25T03:09:07.181Z,36
2017-05-25T03:10:08.430Z,36
2017-05-25T03:11:09.708Z,40
2017-05-25T03:12:10.944Z,48
2017-05-25T03:13:12.208Z,56
2017-05-25T03:14:13.485Z,60
2017-05-25T03:15:14.722Z,72
2017-05-25T03:16:15.965Z,80
2017-05-25T03:17:17.236Z,92
2017-05-25T03:18:18.495Z,96
2017-05-25T03:19:19.838Z,96
2017-05-25T03:20:21.073Z,100
2017-05-25T03:21:22.320Z,104
2017-05-25T03:22:23.614Z,112
2017-05-25T03:23:24.821Z,116
2017-05-25T03:24:26.094Z,124
2017-05-25T03:25:27.404Z,136
2017-05-25T03:26:28.747Z,152
2017-05-25T03:27:30.004Z,168
2017-05-25T03:28:31.246Z,180
2017-05-25T03:29:32.496Z,180
2017-05-25T03:30:33.786Z,184
2017-05-25T03:31:35.017Z,184
2017-05-25T03:32:36.261Z,192
2017-05-25T03:33:37.506Z,212
2017-05-25T03:34:38.765Z,232
2017-05-25T03:35:40.010Z,248
2017-05-25T03:36:41.261Z,264
2017-05-25T03:37:42.511Z,288
2017-05-25T03:38:43.761Z,316
2017-05-25T03:39:45.005Z,340
2017-05-25T03:40:46.251Z,356
2017-05-25T03:41:47.495Z,360
2017-05-25T03:42:48.742Z,368
2017-05-25T03:43:50.003Z,388
2017-05-25T03:44:51.327Z,416
2017-05-25T03:45:52.571Z,440
2017-05-25T03:46:53.828Z,452
2017-05-25T03:47:55.078Z,476
2017-05-25T03:48:56.327Z,480
2017-05-25T03:49:57.649Z,476
2017-05-25T03:50:58.856Z,472
2017-05-25T03:52:00.212Z,476
2017-05-25T03:53:01.477Z,500
2017-05-25T03:54:02.703Z,532
2017-05-25T03:55:03.972Z,544
2017-05-25T03:56:05.203Z,564
2017-05-25T03:57:06.518Z,568
2017-05-25T03:58:07.758Z,556
2017-05-25T03:59:08.998Z,560
2017-05-25T04:00:10.245Z,592
2017-05-25T04:01:11.484Z,628
2017-05-25T04:02:12.743Z,664
2017-05-25T04:03:13.983Z,676
2017-05-25T04:04:15.359Z,688
2017-05-25T04:05:16.588Z,712
2017-05-25T04:06:17.893Z,780
2017-05-25T04:07:19.131Z,796
2017-05-25T04:08:20.369Z,800
2017-05-25T04:09:21.704Z,860
2017-05-25T04:10:22.960Z,880
2017-05-25T04:11:24.250Z,892
2017-05-25T04:12:25.484Z,936
2017-05-25T04:13:26.734Z,968
2017-05-25T04:14:28.079Z,1004
2017-05-25T04:15:29.417Z,988
2017-05-25T04:16:30.694Z,956
2017-05-25T04:17:31.961Z,992
2017-05-25T04:18:33.191Z,1016
2017-05-25T04:19:34.456Z,1044
2017-05-25T04:20:35.706Z,1072
2017-05-25T04:21:36.955Z,1044
2017-05-25T04:22:38.226Z,1084
2017-05-25T04:23:39.483Z,1140
2017-05-25T04:24:40.714Z,1148
2017-05-25T04:25:41.966Z,1184
2017-05-25T04:26:43.224Z,1200
2017-05-25T04:27:44.470Z,1176
2017-05-25T04:28:45.773Z,1172
2017-05-25T04:29:47.010Z,1224
2017-05-25T04:30:48.248Z,1220
2017-05-25T04:31:49.502Z,1212
2017-05-25T04:32:50.753Z,1240
2017-05-25T04:33:51.961Z,1232
2017-05-25T04:34:53.332Z,1272
2017-05-25T04:35:54.484Z,1344
2017-05-25T04:36:55.849Z,1364
2017-05-25T04:37:57.091Z,1420
2017-05-25T04:38:58.340Z,1456
2017-05-25T04:39:59.691Z,1476
2017-05-25T04:41:00.954Z,1512
2017-05-25T04:42:02.201Z,1600
2017-05-25T04:43:03.518Z,1676
2017-05-25T04:44:04.758Z,1700
2017-05-25T04:45:05.990Z,1684
2017-05-25T04:46:07.247Z,1660
2017-05-25T04:47:08.551Z,1716
2017-05-25T04:48:09.824Z,1800
2017-05-25T04:49:11.048Z,1872
2017-05-25T04:50:12.317Z,2004
2017-05-25T04:51:13.573Z,2084
2017-05-25T04:52:14.911Z,2076
2017-05-25T04:53:16.180Z,2048
2017-05-25T04:54:17.462Z,2088
2017-05-25T04:55:18.675Z,2228
2017-05-25T04:56:19.928Z,2248
2017-05-25T04:57:21.174Z,2160
2017-05-25T04:58:22.416Z,2164
2017-05-25T04:59:23.671Z,2204
2017-05-25T05:00:24.915Z,2216
2017-05-25T05:01:26.172Z,2324
2017-05-25T05:02:27.413Z,2492
2017-05-25T05:03:28.652Z,2604
2017-05-25T05:04:29.917Z,2628
2017-05-25T05:05:31.138Z,2532
2017-05-25T05:06:32.420Z,2444
2017-05-25T05:07:33.682Z,2420
2017-05-25T05:08:34.912Z,2472
2017-05-25T05:09:36.156Z,2428
2017-05-25T05:10:37.392Z,2424
2017-05-25T05:11:38.708Z,2480
2017-05-25T05:12:40.005Z,2500
2017-05-25T05:13:41.253Z,2488
2017-05-25T05:14:42.490Z,2380
2017-05-25T05:15:43.801Z,2320
2017-05-25T05:16:45.057Z,2384
2017-05-25T05:17:46.351Z,2508
2017-05-25T05:18:47.592Z,2572
2017-05-25T05:19:48.875Z,2500
2017-05-25T05:20:50.149Z,2472
2017-05-25T05:21:51.414Z,2720
2017-05-25T05:22:52.644Z,2736
2017-05-25T05:23:53.948Z,2676
2017-05-25T05:24:55.254Z,2620
2017-05-25T05:25:56.557Z,2736
2017-05-25T05:26:57.897Z,2860
2017-05-25T05:27:59.138Z,2860
2017-05-25T05:29:00.388Z,3000
2017-05-25T05:30:01.638Z,3436
2017-05-25T05:31:02.901Z,3836
2017-05-25T05:32:04.247Z,4268
2017-05-25T05:33:05.509Z,4512
2017-05-25T05:34:06.734Z,4532
2017-05-25T05:35:08.083Z,4860
2017-05-25T05:36:09.309Z,5260
2017-05-25T05:37:10.573Z,5712
2017-05-25T05:38:11.870Z,5712
2017-05-25T05:39:13.109Z,4852
2017-05-25T05:40:14.329Z,4580
2017-05-25T05:41:15.601Z,4524
2017-05-25T05:42:16.946Z,5020
2017-05-25T05:43:18.274Z,5268
2017-05-25T05:44:19.557Z,5892
2017-05-25T05:45:20.808Z,6608
2017-05-25T05:46:22.058Z,6364
2017-05-25T05:47:23.322Z,6724
2017-05-25T05:48:24.635Z,7160
2017-05-25T05:49:25.882Z,7136
2017-05-25T05:50:27.128Z,6396
2017-05-25T05:51:28.380Z,6092
2017-05-25T05:52:29.630Z,6124
2017-05-25T05:53:30.921Z,5956
2017-05-25T05:54:32.283Z,6000
2017-05-25T05:55:33.563Z,6248
2017-05-25T05:56:34.808Z,6832
2017-05-25T05:57:36.160Z,7316
2017-05-25T05:58:37.409Z,7640
2017-05-25T05:59:38.661Z,7820
2017-05-25T06:00:39.932Z,7076
2017-05-25T06:01:41.251Z,6500
2017-05-25T06:02:42.490Z,6568
2017-05-25T06:03:43.783Z,7492
2017-05-25T06:04:45.028Z,9012
2017-05-25T06:05:46.286Z,10740
2017-05-25T06:06:47.550Z,12308
2017-05-25T06:07:48.802Z,13224
2017-05-25T06:08:50.056Z,13192
2017-05-25T06:09:51.293Z,12572
2017-05-25T06:10:52.535Z,13508
2017-05-25T06:11:53.878Z,16160
2017-05-25T06:12:55.060Z,17600
2017-05-25T06:13:56.329Z,18112
2017-05-25T06:14:57.584Z,19968
2017-05-25T06:15:58.828Z,39200
2017-05-25T06:17:00.093Z,19808
2017-05-25T06:18:01.329Z,36032
2017-05-25T06:19:02.683Z,42816
2017-05-25T06:20:04.004Z,21024
2017-05-25T06:21:05.246Z,35168
2017-05-25T06:22:06.494Z,37472
2017-05-25T06:23:07.787Z,25536
2017-05-25T06:24:09.153Z,32768
2017-05-25T06:25:10.539Z,32992
2017-05-25T06:26:11.845Z,27104
2017-05-25T06:27:13.080Z,16928
2017-05-25T06:28:14.321Z,16896
2017-05-25T06:29:15.575Z,22208
2017-05-25T06:30:16.904Z,16008
2017-05-25T06:31:18.138Z,12324
2017-05-25T06:32:19.404Z,10468
2017-05-25T06:33:20.670Z,10616
2017-05-25T06:34:21.934Z,12956
2017-05-25T06:35:23.205Z,14900
2017-05-25T06:36:24.536Z,13836
2017-05-25T06:37:25.843Z,41888
2017-05-25T06:38:27.141Z,40896
2017-05-25T06:39:28.392Z,42720
2017-05-25T06:40:29.710Z,46048
2017-05-25T06:41:31.155Z,47456
2017-05-25T06:42:32.466Z,51456
2017-05-25T06:43:33.864Z,52576
2017-05-25T06:44:35.108Z,44832
2017-05-25T06:45:36.367Z,48544
2017-05-25T06:46:37.622Z,34368
2017-05-25T06:47:38.957Z,20800
2017-05-25T06:48:40.382Z,20352
2017-05-25T06:49:41.631Z,41248
2017-05-25T06:50:42.879Z,49920
2017-05-25T06:51:44.126Z,49824
2017-05-25T06:52:45.376Z,48064
2017-05-25T06:53:46.637Z,47424
2017-05-25T06:54:47.955Z,49760
2017-05-25T06:55:49.238Z,50304
2017-05-25T06:56:50.534Z,50592
2017-05-25T06:57:51.734Z,51104
2017-05-25T06:58:53.099Z,51104
2017-05-25T06:59:54.399Z,51488
2017-05-25T07:00:55.818Z,52672
2017-05-25T07:01:57.071Z,56384
2017-05-25T07:02:58.337Z,34848
2017-05-25T07:03:59.601Z,17344
2017-05-25T07:05:00.941Z,18976
2017-05-25T07:06:02.193Z,47840
2017-05-25T07:07:03.447Z,50528
2017-05-25T07:08:04.693Z,51584
2017-05-25T07:09:06.000Z,46112
2017-05-25T07:10:07.247Z,24704
2017-05-25T07:11:08.515Z,22016
2017-05-25T07:12:09.797Z,29792
2017-05-25T07:13:11.049Z,24000
2017-05-25T07:14:12.318Z,23936
2017-05-25T07:15:13.568Z,25024
2017-05-25T07:16:14.844Z,36768
2017-05-25T07:17:16.154Z,73952
2017-05-25T07:18:17.405Z,53056
2017-05-25T07:19:18.655Z,71456
2017-05-25T07:20:19.934Z,50944
2017-05-25T07:21:21.187Z,67680
2017-05-25T07:22:22.442Z,62144
2017-05-25T07:23:23.691Z,68512
2017-05-25T07:24:24.986Z,69728
2017-05-25T07:25:26.261Z,72832
2017-05-25T07:26:27.516Z,63616
2017-05-25T07:27:28.771Z,34112
2017-05-25T07:28:30.028Z,33024
2017-05-25T07:29:31.303Z,57856
2017-05-25T07:30:32.676Z,39488
2017-05-25T07:31:33.995Z,59488
2017-05-25T07:32:35.250Z,59072
2017-05-25T07:33:36.489Z,65184
2017-05-25T07:34:37.744Z,73088
2017-05-25T07:35:39.023Z,83616
2017-05-25T07:36:40.324Z,29344
2017-05-25T07:37:41.603Z,36352
2017-05-25T07:38:42.884Z,44736
2017-05-25T07:39:44.171Z,47648
2017-05-25T07:40:45.415Z,38080
2017-05-25T07:41:46.691Z,54240
2017-05-25T07:42:47.974Z,54304
2017-05-25T07:43:49.229Z,38400
2017-05-25T07:44:50.507Z,24320
2017-05-25T07:45:51.737Z,35232
2017-05-25T07:46:53.068Z,24576
2017-05-25T07:47:54.390Z,28064
2017-05-25T07:48:55.627Z,18144
2017-05-25T07:49:56.925Z,14712
2017-05-25T07:50:58.234Z,11964
2017-05-25T07:51:59.482Z,11140
2017-05-25T07:53:00.740Z,11140
2017-05-25T07:54:02.004Z,11396
2017-05-25T07:55:03.262Z,11976
2017-05-25T07:56:04.576Z,12996
2017-05-25T07:57:05.919Z,15356
2017-05-25T07:58:07.189Z,17600
2017-05-25T07:59:08.440Z,20640
2017-05-25T08:00:09.825Z,25408
2017-05-25T08:01:11.059Z,29280
2017-05-25T08:02:12.323Z,21728
2017-05-25T08:03:13.575Z,20512
2017-05-25T08:04:14.835Z,18176
2017-05-25T08:05:16.081Z,19104
2017-05-25T08:06:17.330Z,25120
2017-05-25T08:07:18.599Z,29536
2017-05-25T08:08:19.876Z,29664
2017-05-25T08:09:21.121Z,24128
2017-05-25T08:10:22.368Z,18752
2017-05-25T08:11:23.615Z,19104
2017-05-25T08:12:24.888Z,22752
2017-05-25T08:13:26.135Z,53056
2017-05-25T08:14:27.391Z,18752
2017-05-25T08:15:28.697Z,15376
2017-05-25T08:16:29.961Z,16176
2017-05-25T08:17:31.223Z,29984
2017-05-25T08:18:32.520Z,71456
2017-05-25T08:19:33.776Z,60256
2017-05-25T08:20:35.028Z,84800
2017-05-25T08:21:36.372Z,63264
2017-05-25T08:22:37.638Z,79392
2017-05-25T08:23:38.895Z,24384
2017-05-25T08:24:40.215Z,21696
2017-05-25T08:25:41.486Z,80480
2017-05-25T08:26:42.742Z,86496
2017-05-25T08:27:44.024Z,90656
2017-05-25T08:28:45.301Z,84416
2017-05-25T08:29:46.563Z,86496
2017-05-25T08:30:47.868Z,74848
2017-05-25T08:31:49.078Z,78464
2017-05-25T08:32:50.397Z,88704
2017-05-25T08:33:51.697Z,38720
2017-05-25T08:34:52.962Z,50720
2017-05-25T08:35:54.222Z,37024
2017-05-25T08:36:55.473Z,92576
2017-05-25T08:37:56.757Z,71392
2017-05-25T08:38:58.045Z,95360
2017-05-25T08:39:59.265Z,57536
2017-05-25T08:41:00.519Z,21344
2017-05-25T08:42:01.797Z,12772
2017-05-25T08:43:03.061Z,17344
2017-05-25T08:44:04.318Z,96992
2017-05-25T08:45:05.579Z,93248
2017-05-25T08:46:06.834Z,26528
2017-05-25T08:47:08.153Z,44864
2017-05-25T08:48:09.411Z,17556
2017-05-25T08:49:10.692Z,90048
2017-05-25T08:50:11.961Z,71072
2017-05-25T08:51:13.230Z,88192
2017-05-25T08:52:14.500Z,93472
2017-05-25T08:53:15.749Z,40192
2017-05-25T08:54:17.025Z,91040
2017-05-25T08:55:18.285Z,101152
2017-05-25T08:56:19.580Z,96672
2017-05-25T08:57:20.966Z,33472
2017-05-25T08:58:22.365Z,34528
2017-05-25T08:59:23.622Z,88608
2017-05-25T09:00:24.882Z,31360
2017-05-25T09:01:26.170Z,29376
2017-05-25T09:02:27.412Z,29120
2017-05-25T09:03:28.666Z,28928
2017-05-25T09:04:29.907Z,25440
2017-05-25T09:05:31.181Z,22144
2017-05-25T09:06:32.440Z,94336
2017-05-25T09:07:33.736Z,94624
2017-05-25T09:08:35.002Z,93376
2017-05-25T09:09:36.274Z,101504
2017-05-25T09:10:37.533Z,101600
2017-05-25T09:11:38.799Z,95264
2017-05-25T09:12:40.189Z,96544
2017-05-25T09:13:41.551Z,93664
2017-05-25T09:14:42.816Z,92480
2017-05-25T09:15:44.076Z,93152
2017-05-25T09:16:45.333Z,92320
2017-05-25T09:17:46.606Z,89920
2017-05-25T09:18:47.873Z,90720
2017-05-25T09:19:49.137Z,91776
2017-05-25T09:20:50.455Z,92960
2017-05-25T09:21:51.716Z,96992
2017-05-25T09:22:52.963Z,97088
2017-05-25T09:23:54.278Z,95424
2017-05-25T09:24:55.530Z,94048
2017-05-25T09:25:56.853Z,94176
2017-05-25T09:26:58.112Z,94912
2017-05-25T09:27:59.348Z,93696
2017-05-25T09:29:00.623Z,89632
2017-05-25T09:30:01.930Z,94976
2017-05-25T09:31:03.210Z,95904
2017-05-25T09:32:04.582Z,94848
2017-05-25T09:33:05.893Z,99136
2017-05-25T09:34:07.153Z,102368
2017-05-25T09:35:08.412Z,102304
2017-05-25T09:36:09.668Z,98336
2017-05-25T09:37:10.949Z,103072
2017-05-25T09:38:12.239Z,103296
2017-05-25T09:39:13.519Z,104896
2017-05-25T09:40:14.786Z,105792
2017-05-25T09:41:16.053Z,105504
2017-05-25T09:42:17.362Z,104160
2017-05-25T09:43:18.761Z,103072
2017-05-25T09:44:20.106Z,109152
2017-05-25T09:45:21.370Z,109248
2017-05-25T09:46:22.659Z,108192
2017-05-25T09:47:24.042Z,110688
2017-05-25T09:48:25.276Z,107840
2017-05-25T09:49:26.548Z,91296
2017-05-25T09:50:27.845Z,102464
2017-05-25T09:51:29.114Z,108928
2017-05-25T09:52:30.375Z,102272
2017-05-25T09:53:31.632Z,101568
2017-05-25T09:54:32.905Z,100608
2017-05-25T09:55:34.286Z,106048
2017-05-25T09:56:35.555Z,105088
2017-05-25T09:57:36.824Z,100288
2017-05-25T09:58:38.087Z,99552
2017-05-25T09:59:39.353Z,103552
2017-05-25T10:00:40.647Z,101408
2017-05-25T10:01:41.911Z,50080
2017-05-25T10:02:43.177Z,94240
2017-05-25T10:03:44.439Z,88608
2017-05-25T10:04:45.701Z,83232
2017-05-25T10:05:47.045Z,76768
2017-05-25T10:06:48.326Z,76064
2017-05-25T10:07:49.615Z,65344
2017-05-25T10:08:50.885Z,62336
2017-05-25T10:09:52.128Z,61024
2017-05-25T10:10:53.395Z,61504
2017-05-25T10:11:54.659Z,65440
2017-05-25T10:12:56.109Z,74208
2017-05-25T10:13:57.364Z,81984
2017-05-25T10:14:58.633Z,77440
2017-05-25T10:15:59.932Z,74304
2017-05-25T10:17:01.173Z,76896
2017-05-25T10:18:02.484Z,79296
2017-05-25T10:19:03.763Z,79232
2017-05-25T10:20:05.019Z,78656
2017-05-25T10:21:06.312Z,81664
2017-05-25T10:22:07.571Z,84320
2017-05-25T10:23:09.004Z,83552
2017-05-25T10:24:10.431Z,74688
2017-05-25T10:25:11.733Z,77088
2017-05-25T10:26:12.977Z,77536
2017-05-25T10:27:14.269Z,79200
2017-05-25T10:28:15.519Z,81536
2017-05-25T10:29:16.856Z,84960
2017-05-25T10:30:18.193Z,85792
2017-05-25T10:31:19.467Z,81536
2017-05-25T10:32:20.720Z,74624
2017-05-25T10:33:22.020Z,35712
2017-05-25T10:34:23.237Z,9172
2017-05-25T10:35:24.541Z,8204
2017-05-25T10:36:25.788Z,7640
2017-05-25T10:37:27.054Z,7492
2017-05-25T10:38:28.345Z,7396
2017-05-25T10:39:29.582Z,7536
2017-05-25T10:40:31.076Z,7964
2017-05-25T10:41:32.541Z,8328
2017-05-25T10:42:33.805Z,8096
2017-05-25T10:43:35.061Z,7864
2017-05-25T10:44:36.311Z,7688
2017-05-25T10:45:37.680Z,7796
2017-05-25T10:46:38.939Z,8008
2017-05-25T10:47:40.197Z,8084
2017-05-25T10:48:41.487Z,7856
2017-05-25T10:49:42.724Z,7588
2017-05-25T10:50:44.153Z,7436
2017-05-25T10:51:45.419Z,7504
2017-05-25T10:52:46.826Z,7532
2017-05-25T10:53:48.109Z,7500
2017-05-25T10:54:49.367Z,7376
2017-05-25T10:55:50.619Z,7360
2017-05-25T10:56:51.912Z,7508
2017-05-25T10:57:53.163Z,7564
2017-05-25T10:58:54.399Z,7384
2017-05-25T10:59:55.657Z,7296
2017-05-25T11:00:56.904Z,7008
2017-05-25T11:01:58.173Z,6908
2017-05-25T11:02:59.440Z,6824
2017-05-25T11:04:00.753Z,6708
2017-05-25T11:05:02.002Z,6732
2017-05-25T11:06:03.249Z,6812
2017-05-25T11:07:04.507Z,6936
2017-05-25T11:08:05.762Z,7288
2017-05-25T11:09:07.018Z,7688
2017-05-25T11:10:08.301Z,8040
2017-05-25T11:11:09.591Z,7692
2017-05-25T11:12:10.869Z,8296
2017-05-25T11:13:12.108Z,8152
2017-05-25T11:14:13.351Z,7580
2017-05-25T11:15:14.636Z,7232
2017-05-25T11:16:15.896Z,7496
2017-05-25T11:17:17.132Z,7520
2017-05-25T11:18:18.407Z,6992
2017-05-25T11:19:19.662Z,6732
2017-05-25T11:20:20.938Z,6524
2017-05-25T11:21:22.218Z,6548
2017-05-25T11:22:23.476Z,6592
2017-05-25T11:23:24.734Z,6776
2017-05-25T11:24:26.091Z,6892
2017-05-25T11:25:27.341Z,7572
2017-05-25T11:26:28.587Z,8768
2017-05-25T11:27:29.964Z,9652
2017-05-25T11:28:31.221Z,9400
2017-05-25T11:29:32.474Z,8540
2017-05-25T11:30:33.728Z,7452
2017-05-25T11:31:34.977Z,7056
2017-05-25T11:32:36.276Z,7412
2017-05-25T11:33:37.512Z,7504
2017-05-25T11:34:38.762Z,6756
2017-05-25T11:35:40.014Z,6356
2017-05-25T11:36:41.287Z,6108
2017-05-25T11:37:42.565Z,5972
2017-05-25T11:38:43.808Z,5880
2017-05-25T11:39:45.077Z,5920
2017-05-25T11:40:46.344Z,5988
2017-05-25T11:41:47.586Z,6244
2017-05-25T11:42:48.856Z,6440
2017-05-25T11:43:50.113Z,6284
2017-05-25T11:44:51.362Z,5764
2017-05-25T11:45:52.620Z,5344
2017-05-25T11:46:53.924Z,5304
2017-05-25T11:47:55.176Z,5296
2017-05-25T11:48:56.579Z,5320
2017-05-25T11:49:57.834Z,5376
2017-05-25T11:50:59.078Z,5164
2017-05-25T11:52:00.356Z,5352
2017-05-25T11:53:01.634Z,5300
2017-05-25T11:54:02.984Z,5300
2017-05-25T11:55:04.313Z,5400
2017-05-25T11:56:05.552Z,5440
2017-05-25T11:57:06.809Z,5460
2017-05-25T11:58:08.121Z,5480
2017-05-25T11:59:09.509Z,5432
2017-05-25T12:00:10.653Z,5400
2017-05-25T12:01:11.998Z,5464
2017-05-25T12:02:13.268Z,5432
2017-05-25T12:03:14.526Z,5332
2017-05-25T12:04:15.896Z,5288
2017-05-25T12:05:17.128Z,5216
2017-05-25T12:06:18.607Z,5108
2017-05-25T12:07:19.877Z,4980
2017-05-25T12:08:21.150Z,4892
2017-05-25T12:09:22.412Z,4888
2017-05-25T12:10:23.672Z,4908
2017-05-25T12:11:24.919Z,4840
2017-05-25T12:12:26.188Z,4844
2017-05-25T12:13:27.472Z,4936
2017-05-25T12:14:28.697Z,4964
2017-05-25T12:15:29.963Z,4908
2017-05-25T12:16:31.226Z,4896
2017-05-25T12:17:32.739Z,4792
2017-05-25T12:18:34.011Z,4952
2017-05-25T12:19:35.246Z,5028
2017-05-25T12:20:36.523Z,5104
2017-05-25T12:21:37.779Z,5512
2017-05-25T12:22:39.156Z,5820
2017-05-25T12:23:40.597Z,6204
2017-05-25T12:24:41.842Z,6996
2017-05-25T12:25:43.174Z,7268
2017-05-25T12:26:44.433Z,6276
2017-05-25T12:27:45.685Z,5976
2017-05-25T12:28:46.943Z,6248
2017-05-25T12:29:48.191Z,6380
2017-05-25T12:30:49.448Z,6276
2017-05-25T12:31:50.690Z,6228
2017-05-25T12:32:51.994Z,6296
2017-05-25T12:33:53.263Z,5820
2017-05-25T12:34:54.512Z,5716
2017-05-25T12:35:55.989Z,5528
2017-05-25T12:36:57.238Z,5308
2017-05-25T12:37:58.507Z,5376
2017-05-25T12:38:59.773Z,5492
2017-05-25T12:40:01.072Z,5092
2017-05-25T12:41:02.320Z,4968
2017-05-25T12:42:03.573Z,4928
2017-05-25T12:43:04.850Z,4708
2017-05-25T12:44:06.157Z,4516
2017-05-25T12:45:07.420Z,4812
2017-05-25T12:46:08.673Z,5300
2017-05-25T12:47:09.967Z,5336
2017-05-25T12:48:11.241Z,5248
2017-05-25T12:49:12.487Z,5056
2017-05-25T12:50:13.731Z,4660
2017-05-25T12:51:15.072Z,4364
2017-05-25T12:52:16.323Z,4496
2017-05-25T12:53:17.600Z,4604
2017-05-25T12:54:18.827Z,4520
2017-05-25T12:55:20.106Z,4332
2017-05-25T12:56:21.361Z,4236
2017-05-25T12:57:22.657Z,4196
2017-05-25T12:58:23.926Z,4232
2017-05-25T12:59:25.174Z,4256
2017-05-25T13:00:26.452Z,4376
2017-05-25T13:01:27.674Z,4492
2017-05-25T13:02:28.933Z,4536
2017-05-25T13:03:30.191Z,4500
2017-05-25T13:04:31.479Z,4444
2017-05-25T13:05:32.817Z,4436
2017-05-25T13:06:34.084Z,4356
2017-05-25T13:07:35.345Z,4604
2017-05-25T13:08:36.589Z,4740
2017-05-25T13:09:37.935Z,5028
2017-05-25T13:10:39.184Z,5252
2017-05-25T13:11:40.443Z,5448
2017-05-25T13:12:41.691Z,5512
2017-05-25T13:13:42.981Z,5420
2017-05-25T13:14:44.308Z,5120
2017-05-25T13:15:45.521Z,5244
2017-05-25T13:16:46.786Z,5004
2017-05-25T13:17:48.108Z,4876
2017-05-25T13:18:49.357Z,5528
2017-05-25T13:19:50.610Z,6532
2017-05-25T13:20:51.869Z,7704
2017-05-25T13:21:53.123Z,8960
2017-05-25T13:22:54.372Z,9780
2017-05-25T13:23:55.623Z,10172
2017-05-25T13:24:56.863Z,9740
2017-05-25T13:25:58.119Z,8344
2017-05-25T13:26:59.489Z,7224
2017-05-25T13:28:00.761Z,5956
2017-05-25T13:29:02.105Z,5224
2017-05-25T13:30:03.392Z,5132
2017-05-25T13:31:04.611Z,5476
2017-05-25T13:32:05.865Z,6088
2017-05-25T13:33:07.136Z,6856
2017-05-25T13:34:08.383Z,8652
2017-05-25T13:35:09.644Z,9396
2017-05-25T13:36:10.907Z,8872
2017-05-25T13:37:12.184Z,7664
2017-05-25T13:38:13.446Z,6532
2017-05-25T13:39:14.725Z,6708
2017-05-25T13:40:15.966Z,7172
2017-05-25T13:41:17.226Z,7384
2017-05-25T13:42:18.511Z,6920
2017-05-25T13:43:19.777Z,6276
2017-05-25T13:44:21.040Z,6436
2017-05-25T13:45:22.389Z,6860
2017-05-25T13:46:23.620Z,6860